Fostoria Metropolitan Airport


Codes: KFZI/
Name: Fostoria Metropolitan Airport
City: Fostoria
Country: United States
Elevation: 752 ft.

Photos at Fostoria Metropolitan Airport


   Photos courtesy of SpottingLog. You can add your own sightings and photos by signing up for a free trial today.



No photos found.

Weather at Fostoria Metropolitan Airport


Time (UTC)DescriptionTempratureWindCloud coverageVisibilityPressureHumidity
19-Apr-2024 06:00Light Rain14°C7 mph, S100%10000m1012hPa76%
19-Apr-2024 09:00Moderate Rain15°C18 mph, S100%10000m1010hPa85%
19-Apr-2024 12:00Light Rain10°C18 mph, NW100%10000m1012hPa92%
19-Apr-2024 15:00Overcast Clouds11°C16 mph, NW100%10000m1015hPa74%
19-Apr-2024 18:00Broken Clouds13°C16 mph, NW63%10000m1016hPa48%
19-Apr-2024 21:00Scattered Clouds13°C16 mph, W49%10000m1016hPa42%
20-Apr-2024 00:00Broken Clouds9°C7 mph, W67%10000m1018hPa60%
20-Apr-2024 03:00Broken Clouds8°C9 mph, W61%10000m1019hPa69%
20-Apr-2024 06:00Broken Clouds6°C9 mph, W59%10000m1020hPa70%
20-Apr-2024 09:00Few Clouds4°C9 mph, W21%10000m1020hPa76%
20-Apr-2024 12:00Few Clouds4°C11 mph, W22%10000m1021hPa71%
20-Apr-2024 15:00Clear Sky7°C18 mph, W2%10000m1022hPa49%
20-Apr-2024 18:00Scattered Clouds9°C16 mph, W49%10000m1021hPa46%
20-Apr-2024 21:00Overcast Clouds10°C16 mph, W100%10000m1020hPa46%
21-Apr-2024 00:00Broken Clouds7°C11 mph, W83%10000m1021hPa59%
21-Apr-2024 03:00Clear Sky4°C7 mph, W8%10000m1022hPa70%
21-Apr-2024 06:00Clear Sky2°C7 mph, W5%10000m1021hPa75%
21-Apr-2024 09:00Few Clouds2°C7 mph, W15%10000m1022hPa77%
21-Apr-2024 12:00Scattered Clouds3°C7 mph, W50%10000m1022hPa75%
21-Apr-2024 15:00Overcast Clouds8°C9 mph, W95%10000m1022hPa57%
21-Apr-2024 18:00Broken Clouds11°C11 mph, W51%10000m1020hPa48%
21-Apr-2024 21:00Clear Sky12°C13 mph, W7%10000m1018hPa48%
22-Apr-2024 00:00Clear Sky9°C9 mph, W8%10000m1018hPa65%
22-Apr-2024 03:00Clear Sky6°C7 mph, NW2%10000m1019hPa69%
22-Apr-2024 06:00Clear Sky5°C7 mph, W1%10000m1019hPa67%
22-Apr-2024 09:00Clear Sky4°C7 mph, W0%10000m1019hPa71%
22-Apr-2024 12:00Clear Sky5°C7 mph, SW0%10000m1019hPa73%
22-Apr-2024 15:00Clear Sky11°C9 mph, W0%10000m1019hPa55%
22-Apr-2024 18:00Clear Sky14°C9 mph, W2%10000m1017hPa47%
22-Apr-2024 21:00Scattered Clouds15°C11 mph, W29%10000m1015hPa45%
23-Apr-2024 00:00Broken Clouds12°C7 mph, SW60%10000m1015hPa64%
23-Apr-2024 03:00Overcast Clouds10°C9 mph, SW99%10000m1016hPa72%
23-Apr-2024 06:00Overcast Clouds10°C9 mph, SW100%10000m1015hPa73%
23-Apr-2024 09:00Light Rain9°C11 mph, S100%10000m1013hPa78%
23-Apr-2024 12:00Overcast Clouds10°C18 mph, S100%10000m1012hPa72%
23-Apr-2024 15:00Light Rain10°C18 mph, S100%10000m1011hPa81%
23-Apr-2024 18:00Light Rain12°C20 mph, SW100%10000m1010hPa81%
23-Apr-2024 21:00Light Rain11°C18 mph, SW100%8677m1009hPa91%
24-Apr-2024 00:00Light Rain11°C16 mph, SW100%10000m1009hPa90%
24-Apr-2024 03:00Light Rain11°C13 mph, SW100%4950m1010hPa91%